createdAt,value
2022-08-08T00:01:06.911Z,17.20
2022-08-08T00:03:47.519Z,17.20
2022-08-08T00:06:28.486Z,17.20
2022-08-08T00:09:07.767Z,17.10
2022-08-08T00:11:46.615Z,17.10
2022-08-08T00:14:57.319Z,17.10
2022-08-08T00:17:22.829Z,17.00
2022-08-08T00:19:54.310Z,17.00
2022-08-08T00:22:30.363Z,17.00
2022-08-08T00:25:02.829Z,17.00
2022-08-08T00:27:32.929Z,17.00
2022-08-08T00:30:05.389Z,17.00
2022-08-08T00:32:36.922Z,17.00
2022-08-08T00:35:18.375Z,17.00
2022-08-08T00:38:02.373Z,16.90
2022-08-08T00:41:10.700Z,16.90
2022-08-08T00:43:45.945Z,16.90
2022-08-08T00:46:58.343Z,16.90
2022-08-08T00:49:42.142Z,16.90
2022-08-08T00:52:20.132Z,16.90
2022-08-08T00:55:03.124Z,16.90
2022-08-08T00:57:48.612Z,16.90
2022-08-08T01:00:28.424Z,16.90
2022-08-08T01:04:02.512Z,16.90
2022-08-08T01:06:37.775Z,16.80
2022-08-08T01:09:36.470Z,16.80
2022-08-08T01:12:34.010Z,16.80
2022-08-08T01:15:37.064Z,16.70
2022-08-08T01:18:53.523Z,16.70
2022-08-08T01:22:07.557Z,16.70
2022-08-08T01:24:33.999Z,16.70
2022-08-08T01:27:43.484Z,16.60
2022-08-08T01:30:39.737Z,16.60
2022-08-08T01:33:27.897Z,16.50
2022-08-08T01:36:24.555Z,16.50
2022-08-08T01:39:23.543Z,16.50
2022-08-08T01:42:02.685Z,16.50
2022-08-08T01:44:39.161Z,16.40
2022-08-08T01:48:14.524Z,16.40
2022-08-08T01:50:06.034Z,16.40
2022-08-08T01:54:07.337Z,16.40
2022-08-08T01:56:27.683Z,16.40
2022-08-08T01:58:46.401Z,16.40
2022-08-08T02:02:00.109Z,16.40
2022-08-08T02:04:33.504Z,16.40
2022-08-08T02:07:06.011Z,16.30
2022-08-08T02:10:03.406Z,16.30
2022-08-08T02:12:38.248Z,16.30
2022-08-08T02:15:11.408Z,16.30
2022-08-08T02:17:50.442Z,16.30
2022-08-08T02:21:01.598Z,16.20
2022-08-08T02:23:20.242Z,16.30
2022-08-08T02:25:53.027Z,16.20
2022-08-08T02:28:35.288Z,16.20
2022-08-08T02:31:43.981Z,16.20
2022-08-08T02:34:32.813Z,16.20
2022-08-08T02:37:10.022Z,16.20
2022-08-08T02:40:01.563Z,16.20
2022-08-08T02:44:42.834Z,16.20
2022-08-08T02:46:20.937Z,16.20
2022-08-08T02:49:13.398Z,16.10
2022-08-08T02:51:59.782Z,16.10
2022-08-08T02:54:45.852Z,16.10
2022-08-08T02:57:40.509Z,16.00
2022-08-08T03:00:33.956Z,16.00
2022-08-08T03:05:01.157Z,16.00
2022-08-08T03:06:34.945Z,15.90
2022-08-08T03:09:44.292Z,15.90
2022-08-08T03:12:28.068Z,15.90
2022-08-08T03:15:57.498Z,15.90
2022-08-08T03:18:31.138Z,15.80
2022-08-08T03:21:01.606Z,15.80
2022-08-08T03:23:54.717Z,15.70
2022-08-08T03:26:30.692Z,15.70
2022-08-08T03:29:03.458Z,15.70
2022-08-08T03:32:05.252Z,15.70
2022-08-08T03:34:33.717Z,15.70
2022-08-08T03:37:01.728Z,15.70
2022-08-08T03:39:51.914Z,15.70
2022-08-08T03:42:38.791Z,15.60
2022-08-08T03:46:05.602Z,15.60
2022-08-08T03:48:03.491Z,15.60
2022-08-08T03:50:42.903Z,15.50
2022-08-08T03:53:23.915Z,15.50
2022-08-08T03:56:10.537Z,15.50
2022-08-08T03:58:58.814Z,15.40
2022-08-08T04:02:12.916Z,15.40
2022-08-08T04:04:30.677Z,15.40
2022-08-08T04:07:01.463Z,15.40
2022-08-08T04:09:58.836Z,15.30
2022-08-08T04:12:27.359Z,15.30
2022-08-08T04:14:55.762Z,15.30
2022-08-08T04:17:58.470Z,15.30
2022-08-08T04:20:12.272Z,15.30
2022-08-08T04:22:40.368Z,15.30
2022-08-08T04:25:15.377Z,15.30
2022-08-08T04:28:34.283Z,15.40
2022-08-08T04:30:36.601Z,15.40
2022-08-08T04:33:15.392Z,15.40
2022-08-08T04:35:43.916Z,15.60
2022-08-08T04:38:21.796Z,16.00
2022-08-08T04:40:53.265Z,16.40
2022-08-08T04:43:31.600Z,16.90
2022-08-08T04:46:14.684Z,17.50
2022-08-08T04:48:44.343Z,17.90
2022-08-08T04:51:17.379Z,18.30
2022-08-08T04:54:38.727Z,18.80
2022-08-08T04:56:40.747Z,19.20
2022-08-08T04:59:12.879Z,19.60
2022-08-08T05:01:48.531Z,20.00
2022-08-08T05:04:19.711Z,20.40
2022-08-08T05:06:50.603Z,20.60
2022-08-08T05:09:21.202Z,20.90
2022-08-08T05:11:56.562Z,21.20
2022-08-08T05:14:29.053Z,21.40
2022-08-08T05:17:01.070Z,21.70
2022-08-08T05:20:10.851Z,22.00
2022-08-08T05:22:30.432Z,22.60
2022-08-08T05:25:00.092Z,22.90
2022-08-08T05:27:41.635Z,23.30
2022-08-08T05:30:15.829Z,23.50
2022-08-08T05:32:46.882Z,23.60
2022-08-08T05:35:20.082Z,24.00
2022-08-08T05:37:56.192Z,24.10
2022-08-08T05:40:49.540Z,24.10
2022-08-08T05:43:39.920Z,24.10
2022-08-08T05:46:18.528Z,24.30
2022-08-08T05:48:49.864Z,24.30
2022-08-08T05:51:21.896Z,24.60
2022-08-08T05:54:24.791Z,24.80
2022-08-08T05:56:47.720Z,24.80
2022-08-08T05:59:59.887Z,24.70
2022-08-08T06:02:38.511Z,25.00
2022-08-08T06:05:24.277Z,24.90
2022-08-08T06:08:02.428Z,24.90
2022-08-08T06:10:34.685Z,25.60
2022-08-08T06:13:04.077Z,26.40
2022-08-08T06:15:50.890Z,27.00
2022-08-08T06:18:30.141Z,27.50
2022-08-08T06:21:03.656Z,28.00
2022-08-08T06:23:48.759Z,28.40
2022-08-08T06:26:44.562Z,28.80
2022-08-08T06:29:48.916Z,28.80
2022-08-08T06:32:10.362Z,28.70
2022-08-08T06:34:52.519Z,28.70
2022-08-08T06:37:37.633Z,28.90
2022-08-08T06:40:16.222Z,28.90
2022-08-08T06:42:54.933Z,29.00
2022-08-08T06:45:28.258Z,29.20
2022-08-08T06:48:01.347Z,29.60
2022-08-08T06:50:38.248Z,29.50
2022-08-08T06:53:17.113Z,29.60
2022-08-08T06:56:01.920Z,29.80
2022-08-08T06:58:33.261Z,29.90
2022-08-08T07:01:11.662Z,30.00
2022-08-08T07:04:37.863Z,30.30
2022-08-08T07:06:44.939Z,30.40
2022-08-08T07:09:17.765Z,30.80
2022-08-08T07:11:51.347Z,31.30
2022-08-08T07:14:24.524Z,31.70
2022-08-08T07:16:58.982Z,32.10
2022-08-08T07:19:31.441Z,32.40
2022-08-08T07:22:05.667Z,33.00
2022-08-08T07:24:44.277Z,33.70
2022-08-08T07:27:21.206Z,34.20
2022-08-08T07:30:01.618Z,34.30
2022-08-08T07:32:33.397Z,34.40
2022-08-08T07:35:02.846Z,33.90
2022-08-08T07:37:56.052Z,34.30
2022-08-08T07:40:41.117Z,34.00
2022-08-08T07:43:13.565Z,33.40
2022-08-08T07:46:05.430Z,33.80
2022-08-08T07:48:38.914Z,34.50
2022-08-08T07:51:22.932Z,35.00
2022-08-08T07:54:03.522Z,35.80
2022-08-08T07:56:38.210Z,36.30
2022-08-08T07:59:11.122Z,36.70
2022-08-08T08:02:36.626Z,37.20
2022-08-08T08:04:41.219Z,37.30
2022-08-08T08:07:11.046Z,38.30
2022-08-08T08:09:42.447Z,39.10
2022-08-08T08:12:31.753Z,39.40
2022-08-08T08:15:05.001Z,39.90
2022-08-08T08:17:48.231Z,40.00
2022-08-08T08:20:22.105Z,40.50
2022-08-08T08:22:58.992Z,41.20
2022-08-08T08:25:40.778Z,41.90
2022-08-08T08:28:21.147Z,42.60
2022-08-08T08:30:53.357Z,43.10
2022-08-08T08:33:23.616Z,41.90
2022-08-08T08:36:18.497Z,41.40
2022-08-08T08:38:49.536Z,40.70
2022-08-08T08:41:22.357Z,41.40
2022-08-08T08:43:53.069Z,41.80
2022-08-08T08:46:45.526Z,41.80
2022-08-08T08:49:16.592Z,40.80
2022-08-08T08:51:50.896Z,41.40
2022-08-08T08:54:25.361Z,42.00
2022-08-08T08:56:56.870Z,42.20
2022-08-08T08:59:58.966Z,42.10
2022-08-08T09:02:19.954Z,41.90
2022-08-08T09:04:50.234Z,41.60
2022-08-08T09:07:24.436Z,42.50
2022-08-08T09:10:17.264Z,43.20
2022-08-08T09:12:50.596Z,43.50
2022-08-08T09:15:40.863Z,43.70
2022-08-08T09:18:08.690Z,43.90
2022-08-08T09:22:02.431Z,44.50
2022-08-08T09:23:33.714Z,44.70
2022-08-08T09:26:12.544Z,44.50
2022-08-08T09:28:44.274Z,45.00
2022-08-08T09:31:21.449Z,45.70
2022-08-08T09:34:15.038Z,46.00
2022-08-08T09:36:51.430Z,45.70
2022-08-08T09:39:43.981Z,46.40
2022-08-08T09:42:21.626Z,45.80
2022-08-08T09:45:08.073Z,44.70
2022-08-08T09:48:09.783Z,45.20
2022-08-08T09:50:28.065Z,45.60
2022-08-08T09:53:14.423Z,46.00
2022-08-08T09:56:05.310Z,46.10
2022-08-08T09:58:41.618Z,46.20
2022-08-08T10:01:59.972Z,46.80
2022-08-08T10:04:11.710Z,46.50
2022-08-08T10:06:44.924Z,45.70
2022-08-08T10:09:13.440Z,45.90
2022-08-08T10:12:27.632Z,46.20
2022-08-08T10:14:38.695Z,46.30
2022-08-08T10:18:07.369Z,46.30
2022-08-08T10:20:03.848Z,45.00
2022-08-08T10:22:32.920Z,45.50
2022-08-08T10:25:05.338Z,46.30
2022-08-08T10:27:40.961Z,46.70
2022-08-08T10:30:15.978Z,46.00
2022-08-08T10:33:00.303Z,45.30
2022-08-08T10:36:07.442Z,45.00
2022-08-08T10:38:18.887Z,45.50
2022-08-08T10:40:51.374Z,46.20
2022-08-08T10:43:20.156Z,46.20
2022-08-08T10:45:56.251Z,46.80
2022-08-08T10:48:38.934Z,46.80
2022-08-08T10:51:22.079Z,46.70
2022-08-08T10:53:57.282Z,47.30
2022-08-08T10:56:34.582Z,48.00
2022-08-08T10:59:03.110Z,48.40
2022-08-08T11:01:33.449Z,48.20
2022-08-08T11:04:07.880Z,48.30
2022-08-08T11:06:41.894Z,48.30
2022-08-08T11:09:21.712Z,47.80
2022-08-08T11:12:05.160Z,47.50
2022-08-08T11:14:49.433Z,48.00
2022-08-08T11:17:17.871Z,47.90
2022-08-08T11:20:10.983Z,48.50
2022-08-08T11:22:41.057Z,49.00
2022-08-08T11:25:14.138Z,49.10
2022-08-08T11:27:44.579Z,49.60
2022-08-08T11:30:20.480Z,49.50
2022-08-08T11:32:53.962Z,48.70
2022-08-08T11:35:37.842Z,47.10
2022-08-08T11:38:38.999Z,47.00
2022-08-08T11:40:58.712Z,47.40
2022-08-08T11:43:39.145Z,48.00
2022-08-08T11:46:18.441Z,48.70
2022-08-08T11:48:54.060Z,48.90
2022-08-08T11:51:30.948Z,48.90
2022-08-08T11:54:26.937Z,49.20
2022-08-08T11:56:57.794Z,48.90
2022-08-08T11:59:58.511Z,48.40
2022-08-08T12:02:41.873Z,47.40
2022-08-08T12:05:12.198Z,45.50
2022-08-08T12:07:51.545Z,43.60
2022-08-08T12:10:20.542Z,43.80
2022-08-08T12:12:49.347Z,44.80
2022-08-08T12:15:27.731Z,45.40
2022-08-08T12:17:55.790Z,44.80
2022-08-08T12:20:24.108Z,44.70
2022-08-08T12:22:54.560Z,45.60
2022-08-08T12:25:30.896Z,46.20
2022-08-08T12:28:15.439Z,46.80
2022-08-08T12:30:47.746Z,47.10
2022-08-08T12:33:19.424Z,47.20
2022-08-08T12:35:52.658Z,47.50
2022-08-08T12:38:30.561Z,48.10
2022-08-08T12:41:07.006Z,48.30
2022-08-08T12:43:59.987Z,48.70
2022-08-08T12:46:29.158Z,48.70
2022-08-08T12:51:58.989Z,49.40
2022-08-08T12:54:36.177Z,49.70
2022-08-08T12:57:14.607Z,49.80
2022-08-08T13:00:03.590Z,49.50
2022-08-08T13:02:35.998Z,48.30
2022-08-08T13:05:26.003Z,46.80
2022-08-08T13:08:03.093Z,45.50
2022-08-08T13:10:36.449Z,44.10
2022-08-08T13:13:08.131Z,43.50
2022-08-08T13:15:36.579Z,43.90
2022-08-08T13:18:11.333Z,44.90
2022-08-08T13:20:45.006Z,45.80
2022-08-08T13:23:36.656Z,46.50
2022-08-08T13:26:15.222Z,47.10
2022-08-08T13:28:48.991Z,47.40
2022-08-08T13:31:17.970Z,47.70
2022-08-08T13:33:50.069Z,48.30
2022-08-08T13:36:26.257Z,48.00
2022-08-08T13:38:54.795Z,48.20
2022-08-08T13:41:39.473Z,47.90
2022-08-08T13:44:12.805Z,46.70
2022-08-08T13:46:41.017Z,46.70
2022-08-08T13:50:35.745Z,47.00
2022-08-08T13:52:05.747Z,47.20
2022-08-08T13:54:35.832Z,46.40
2022-08-08T13:57:12.598Z,45.70
2022-08-08T13:59:43.666Z,45.40
2022-08-08T14:02:20.865Z,45.70
2022-08-08T14:04:53.807Z,45.90
2022-08-08T14:07:22.880Z,46.00
2022-08-08T14:10:05.004Z,45.70
2022-08-08T14:12:43.827Z,45.70
2022-08-08T14:15:24.174Z,45.40
2022-08-08T14:18:36.872Z,45.40
2022-08-08T14:20:57.323Z,45.50
2022-08-08T14:24:06.458Z,44.50
2022-08-08T14:26:28.091Z,43.90
2022-08-08T14:28:58.800Z,44.00
2022-08-08T14:32:05.794Z,43.70
2022-08-08T14:34:19.508Z,43.30
2022-08-08T14:36:54.387Z,43.10
2022-08-08T14:39:24.869Z,43.10
2022-08-08T14:42:10.734Z,42.90
2022-08-08T14:44:40.326Z,43.00
2022-08-08T14:47:20.891Z,41.50
2022-08-08T14:50:02.559Z,40.70
2022-08-08T14:52:48.182Z,40.60
2022-08-08T14:55:22.627Z,41.20
2022-08-08T14:58:11.430Z,41.30
2022-08-08T15:00:42.230Z,42.00
2022-08-08T15:03:15.617Z,42.20
2022-08-08T15:05:54.185Z,42.40
2022-08-08T15:08:35.107Z,42.60
2022-08-08T15:11:18.973Z,42.60
2022-08-08T15:14:03.181Z,42.70
2022-08-08T15:16:34.317Z,42.70
2022-08-08T15:19:03.308Z,42.60
2022-08-08T15:21:31.526Z,42.50
2022-08-08T15:23:59.641Z,42.30
2022-08-08T15:26:28.941Z,42.10
2022-08-08T15:28:58.456Z,41.90
2022-08-08T15:32:17.208Z,41.70
2022-08-08T15:37:37.198Z,40.80
2022-08-08T15:40:05.928Z,40.20
2022-08-08T15:42:39.673Z,39.50
2022-08-08T15:45:29.755Z,39.30
2022-08-08T15:48:24.162Z,39.50
2022-08-08T15:51:03.152Z,39.50
2022-08-08T15:53:49.033Z,38.60
2022-08-08T15:56:20.309Z,38.30
2022-08-08T15:58:49.395Z,38.20
2022-08-08T16:01:21.174Z,38.20
2022-08-08T16:03:51.622Z,38.10
2022-08-08T16:06:28.665Z,38.10
2022-08-08T16:13:01.077Z,38.10
2022-08-08T16:13:04.200Z,38.40
2022-08-08T16:14:34.588Z,38.40
2022-08-08T16:17:05.659Z,38.10
2022-08-08T16:20:00.082Z,37.90
2022-08-08T16:22:30.273Z,37.80
2022-08-08T16:24:58.767Z,37.80
2022-08-08T16:27:35.254Z,37.30
2022-08-08T16:30:13.273Z,37.30
2022-08-08T16:32:41.962Z,37.40
2022-08-08T16:35:10.632Z,37.40
2022-08-08T16:37:46.556Z,37.10
2022-08-08T16:40:19.882Z,36.60
2022-08-08T16:42:51.905Z,35.70
2022-08-08T16:46:37.692Z,34.90
2022-08-08T16:48:13.477Z,34.80
2022-08-08T16:50:41.911Z,35.00
2022-08-08T16:55:00.057Z,35.10
2022-08-08T16:56:03.233Z,35.20
2022-08-08T16:58:35.669Z,35.10
2022-08-08T17:01:05.854Z,35.00
2022-08-08T17:03:58.838Z,34.80
2022-08-08T17:06:36.402Z,34.60
2022-08-08T17:09:07.520Z,34.50
2022-08-08T17:11:48.698Z,34.10
2022-08-08T17:14:34.143Z,33.60
2022-08-08T17:17:03.742Z,33.30
2022-08-08T17:19:41.078Z,32.90
2022-08-08T17:22:10.174Z,32.60
2022-08-08T17:24:39.412Z,32.20
2022-08-08T17:27:07.735Z,31.90
2022-08-08T17:29:36.630Z,31.70
2022-08-08T17:32:11.908Z,31.40
2022-08-08T17:35:04.321Z,31.20
2022-08-08T17:37:27.867Z,31.00
2022-08-08T17:40:10.730Z,30.80
2022-08-08T17:42:41.304Z,30.70
2022-08-08T17:45:22.841Z,30.50
2022-08-08T17:47:53.993Z,30.30
2022-08-08T17:50:22.855Z,30.10
2022-08-08T17:52:57.509Z,29.90
2022-08-08T17:56:05.925Z,29.80
2022-08-08T17:58:15.512Z,29.60
2022-08-08T18:00:47.639Z,29.50
2022-08-08T18:03:25.252Z,29.40
2022-08-08T18:05:53.292Z,29.30
2022-08-08T18:08:25.227Z,29.20
2022-08-08T18:11:11.565Z,29.00
2022-08-08T18:13:42.883Z,28.90
2022-08-08T18:16:11.590Z,28.70
2022-08-08T18:18:42.586Z,28.60
2022-08-08T18:21:25.227Z,28.50
2022-08-08T18:24:02.816Z,28.40
2022-08-08T18:26:33.417Z,28.30
2022-08-08T18:29:01.842Z,28.10
2022-08-08T18:31:29.816Z,28.00
2022-08-08T18:34:11.126Z,27.90
2022-08-08T18:36:46.314Z,27.70
2022-08-08T18:39:16.378Z,27.60
2022-08-08T18:41:58.301Z,27.40
2022-08-08T18:44:28.962Z,27.30
2022-08-08T18:46:58.159Z,27.20
2022-08-08T18:49:32.237Z,27.00
2022-08-08T18:52:08.611Z,26.90
2022-08-08T18:54:59.429Z,26.80
2022-08-08T18:57:40.774Z,26.70
2022-08-08T19:00:15.424Z,26.50
2022-08-08T19:02:54.954Z,26.40
2022-08-08T19:05:30.535Z,26.20
2022-08-08T19:08:10.233Z,26.10
2022-08-08T19:10:54.563Z,26.00
2022-08-08T19:13:52.517Z,25.80
2022-08-08T19:16:19.511Z,25.70
2022-08-08T19:18:53.037Z,25.60
2022-08-08T19:21:33.086Z,25.50
2022-08-08T19:24:05.689Z,25.40
2022-08-08T19:26:35.215Z,25.30
2022-08-08T19:29:04.694Z,25.20
2022-08-08T19:31:35.322Z,25.10
2022-08-08T19:34:29.934Z,25.00
2022-08-08T19:36:53.701Z,25.00
2022-08-08T19:39:23.481Z,24.90
2022-08-08T19:41:52.414Z,24.80
2022-08-08T19:44:27.069Z,24.70
2022-08-08T19:47:09.784Z,24.60
2022-08-08T19:49:43.189Z,24.50
2022-08-08T19:52:35.512Z,24.50
2022-08-08T19:55:06.782Z,24.40
2022-08-08T19:57:36.198Z,24.30
2022-08-08T20:00:11.267Z,24.20
2022-08-08T20:02:55.275Z,24.20
2022-08-08T20:06:13.539Z,24.10
2022-08-08T20:08:31.086Z,24.00
2022-08-08T20:10:59.931Z,24.00
2022-08-08T20:14:32.141Z,23.90
2022-08-08T20:16:18.212Z,23.80
2022-08-08T20:18:53.098Z,23.70
2022-08-08T20:21:25.541Z,23.60
2022-08-08T20:23:58.155Z,23.60
2022-08-08T20:26:30.108Z,23.50
2022-08-08T20:29:02.067Z,23.40
2022-08-08T20:32:07.009Z,23.40
2022-08-08T20:34:30.308Z,23.40
2022-08-08T20:37:00.001Z,23.30
2022-08-08T20:39:39.320Z,23.30
2022-08-08T20:42:16.178Z,23.20
2022-08-08T20:44:44.290Z,23.20
2022-08-08T20:47:22.857Z,23.10
2022-08-08T20:49:54.538Z,23.00
2022-08-08T20:52:27.566Z,23.00
2022-08-08T20:54:55.589Z,22.90
2022-08-08T20:57:25.402Z,22.90
2022-08-08T20:59:55.777Z,22.90
2022-08-08T21:02:26.618Z,22.80
2022-08-08T21:04:57.366Z,22.80
2022-08-08T21:07:46.925Z,22.70
2022-08-08T21:10:16.008Z,22.70
2022-08-08T21:12:44.713Z,22.60
2022-08-08T21:15:16.487Z,22.50
2022-08-08T21:18:03.671Z,22.50
2022-08-08T21:20:34.543Z,22.40
2022-08-08T21:23:02.972Z,22.40
2022-08-08T21:25:36.208Z,22.30
2022-08-08T21:28:09.174Z,22.30
2022-08-08T21:30:45.209Z,22.20
2022-08-08T21:33:18.837Z,22.20
2022-08-08T21:36:16.496Z,22.10
2022-08-08T21:38:35.113Z,22.10
2022-08-08T21:41:05.216Z,22.10
2022-08-08T21:43:35.030Z,22.00
2022-08-08T21:48:04.712Z,21.90
2022-08-08T21:48:54.940Z,21.90
2022-08-08T21:54:18.049Z,21.80
2022-08-08T21:54:34.362Z,21.80
2022-08-08T21:57:02.744Z,21.70
2022-08-08T22:00:03.233Z,21.60
2022-08-08T22:02:23.535Z,21.60
2022-08-08T22:04:55.804Z,21.50
2022-08-08T22:07:39.437Z,21.50
2022-08-08T22:10:09.535Z,21.50
2022-08-08T22:12:38.793Z,21.40
2022-08-08T22:15:07.447Z,21.40
2022-08-08T22:17:45.285Z,21.40
2022-08-08T22:20:19.012Z,21.40
2022-08-08T22:22:52.169Z,21.40
2022-08-08T22:25:25.689Z,21.30
2022-08-08T22:28:03.638Z,21.30
2022-08-08T22:30:42.555Z,21.20
2022-08-08T22:34:11.251Z,21.20
2022-08-08T22:36:05.284Z,21.20
2022-08-08T22:38:48.727Z,21.20
2022-08-08T22:41:21.875Z,21.20
2022-08-08T22:44:02.671Z,21.20
2022-08-08T22:46:34.544Z,21.20
2022-08-08T22:49:06.898Z,21.10
2022-08-08T22:51:42.763Z,21.10
2022-08-08T22:54:32.898Z,21.00
2022-08-08T22:57:11.552Z,21.00
2022-08-08T22:59:48.462Z,21.00
2022-08-08T23:02:28.598Z,20.90
2022-08-08T23:05:04.852Z,20.90
2022-08-08T23:07:49.176Z,20.80
2022-08-08T23:10:21.305Z,20.80
2022-08-08T23:12:51.717Z,20.70
2022-08-08T23:16:38.721Z,20.70
2022-08-08T23:18:13.317Z,20.70
2022-08-08T23:20:43.515Z,20.60
2022-08-08T23:23:13.318Z,20.50
2022-08-08T23:25:48.174Z,20.50
2022-08-08T23:28:17.807Z,20.50
2022-08-08T23:30:46.262Z,20.40
2022-08-08T23:33:20.987Z,20.40
2022-08-08T23:36:07.765Z,20.30
2022-08-08T23:38:44.334Z,20.30
2022-08-08T23:41:24.822Z,20.30
2022-08-08T23:43:56.123Z,20.30
2022-08-08T23:49:03.211Z,20.20
2022-08-08T23:49:18.636Z,20.20
2022-08-08T23:52:06.791Z,20.10
2022-08-08T23:54:41.403Z,20.10
2022-08-08T23:57:27.777Z,20.10
